createdAt,value
2023-03-08T00:02:06.442Z,2.17
2023-03-08T00:04:34.175Z,1.88
2023-03-08T00:07:00.802Z,1.42
2023-03-08T00:09:27.429Z,2.00
2023-03-08T00:11:54.073Z,2.00
2023-03-08T00:14:22.377Z,1.85
2023-03-08T00:16:49.126Z,1.88
2023-03-08T00:19:15.983Z,2.15
2023-03-08T00:21:42.765Z,3.17
2023-03-08T00:24:09.516Z,1.73
2023-03-08T00:26:37.176Z,1.30
2023-03-08T00:29:04.010Z,1.67
2023-03-08T00:31:30.814Z,2.85
2023-03-08T00:33:57.429Z,0.80
2023-03-08T00:36:24.213Z,1.08
2023-03-08T00:38:51.543Z,1.00
2023-03-08T00:41:19.206Z,1.15
2023-03-08T00:43:46.013Z,1.05
2023-03-08T00:46:14.030Z,0.80
2023-03-08T00:48:41.793Z,1.20
2023-03-08T00:51:12.283Z,0.65
2023-03-08T00:53:38.946Z,0.57
2023-03-08T00:56:06.009Z,0.73
2023-03-08T00:58:33.332Z,0.68
2023-03-08T01:01:00.259Z,0.85
2023-03-08T01:03:27.968Z,0.90
2023-03-08T01:05:58.536Z,0.80
2023-03-08T01:08:27.083Z,1.15
2023-03-08T01:10:58.615Z,1.50
2023-03-08T01:13:27.224Z,0.50
2023-03-08T01:15:53.876Z,0.30
2023-03-08T01:18:20.554Z,0.32
2023-03-08T01:21:04.734Z,0.70
2023-03-08T01:23:32.024Z,0.50
2023-03-08T01:26:13.947Z,0.20
2023-03-08T01:28:41.333Z,0.50
2023-03-08T01:31:16.775Z,0.40
2023-03-08T01:33:44.554Z,0.32
2023-03-08T01:36:15.195Z,0.40
2023-03-08T01:38:42.469Z,0.98
2023-03-08T01:41:14.951Z,0.30
2023-03-08T01:43:41.840Z,0.50
2023-03-08T01:46:16.134Z,1.27
2023-03-08T01:48:49.107Z,0.50
2023-03-08T01:51:20.925Z,0.63
2023-03-08T01:53:47.948Z,0.32
2023-03-08T01:56:17.613Z,0.35
2023-03-08T01:58:47.245Z,0.95
2023-03-08T02:01:15.151Z,0.40
2023-03-08T02:03:41.844Z,0.38
2023-03-08T02:06:08.669Z,0.20
2023-03-08T02:08:35.929Z,0.75
2023-03-08T02:11:02.986Z,0.30
2023-03-08T02:13:30.278Z,1.30
2023-03-08T02:15:58.658Z,0.30
2023-03-08T02:18:25.363Z,0.40
2023-03-08T02:20:52.064Z,0.70
2023-03-08T02:23:21.335Z,0.40
2023-03-08T02:26:00.693Z,0.38
2023-03-08T02:28:27.737Z,0.32
2023-03-08T02:30:55.497Z,0.55
2023-03-08T02:33:23.358Z,0.40
2023-03-08T02:35:50.792Z,0.32
2023-03-08T02:38:19.988Z,0.22
2023-03-08T02:40:48.323Z,0.30
2023-03-08T02:43:14.977Z,0.20
2023-03-08T02:45:41.630Z,0.30
2023-03-08T02:48:09.216Z,0.32
2023-03-08T02:50:36.750Z,0.40
2023-03-08T02:53:04.997Z,0.70
2023-03-08T02:55:31.716Z,0.50
2023-03-08T02:57:58.326Z,0.52
2023-03-08T03:03:04.523Z,0.32
2023-03-08T03:05:31.302Z,0.20
2023-03-08T03:07:58.772Z,0.20
2023-03-08T03:10:25.971Z,0.35
2023-03-08T03:12:53.090Z,0.30
2023-03-08T03:15:19.871Z,0.50
2023-03-08T03:17:46.626Z,0.30
2023-03-08T03:20:13.704Z,0.40
2023-03-08T03:22:40.472Z,0.40
2023-03-08T03:25:07.581Z,0.20
2023-03-08T03:27:34.272Z,0.30
2023-03-08T03:30:00.964Z,0.30
2023-03-08T03:32:27.868Z,0.47
2023-03-08T03:34:54.658Z,0.43
2023-03-08T03:37:21.542Z,0.10
2023-03-08T03:39:48.208Z,0.40
2023-03-08T03:42:15.412Z,0.25
2023-03-08T03:44:42.154Z,0.25
2023-03-08T03:47:08.951Z,0.40
2023-03-08T03:49:35.591Z,0.20
2023-03-08T03:52:03.247Z,0.22
2023-03-08T03:54:29.929Z,0.20
2023-03-08T03:56:58.355Z,0.28
2023-03-08T03:59:26.723Z,0.47
2023-03-08T04:01:53.712Z,0.28
2023-03-08T04:04:20.474Z,0.35
2023-03-08T04:06:47.697Z,0.40
2023-03-08T04:09:16.757Z,0.30
2023-03-08T04:11:43.489Z,0.63
2023-03-08T04:14:10.955Z,0.50
2023-03-08T04:16:39.512Z,0.28
2023-03-08T04:19:10.378Z,0.45
2023-03-08T04:21:37.109Z,0.30
2023-03-08T04:24:05.337Z,0.30
2023-03-08T04:26:32.074Z,0.52
2023-03-08T04:28:58.720Z,0.38
2023-03-08T04:31:28.565Z,0.30
2023-03-08T04:33:56.282Z,0.20
2023-03-08T04:36:23.324Z,0.22
2023-03-08T04:38:50.893Z,0.22
2023-03-08T04:41:18.854Z,0.30
2023-03-08T04:43:52.222Z,0.20
2023-03-08T04:46:23.212Z,0.28
2023-03-08T04:48:52.986Z,0.20
2023-03-08T04:51:20.543Z,0.47
2023-03-08T04:53:47.424Z,0.50
2023-03-08T04:56:15.662Z,0.30
2023-03-08T04:58:43.462Z,0.22
2023-03-08T05:01:18.496Z,0.20
2023-03-08T05:03:45.685Z,0.22
2023-03-08T05:06:14.280Z,0.22
2023-03-08T05:08:41.490Z,0.40
2023-03-08T05:11:08.874Z,0.30
2023-03-08T05:13:37.866Z,1.85
2023-03-08T05:16:07.361Z,0.20
2023-03-08T05:18:34.880Z,0.30
2023-03-08T05:21:04.408Z,0.40
2023-03-08T05:23:31.774Z,0.20
2023-03-08T05:26:00.404Z,0.38
2023-03-08T05:28:30.205Z,0.30
2023-03-08T05:31:08.880Z,0.20
2023-03-08T05:33:36.412Z,0.13
2023-03-08T05:36:04.654Z,0.43
2023-03-08T05:38:31.407Z,0.40
2023-03-08T05:41:04.492Z,0.30
2023-03-08T05:43:31.684Z,0.60
2023-03-08T05:46:03.729Z,0.35
2023-03-08T05:48:31.687Z,0.30
2023-03-08T05:50:58.695Z,0.10
2023-03-08T05:53:25.769Z,0.25
2023-03-08T05:55:52.642Z,0.30
2023-03-08T05:58:19.329Z,0.30
2023-03-08T06:00:45.990Z,0.32
2023-03-08T06:03:12.981Z,0.57
2023-03-08T06:05:39.630Z,0.40
2023-03-08T06:08:06.364Z,0.38
2023-03-08T06:10:32.995Z,0.70
2023-03-08T06:12:59.635Z,0.38
2023-03-08T06:15:26.389Z,0.30
2023-03-08T06:17:54.229Z,0.32
2023-03-08T06:20:21.938Z,0.25
2023-03-08T06:22:48.650Z,1.05
2023-03-08T06:25:15.543Z,0.80
2023-03-08T06:27:42.245Z,0.43
2023-03-08T06:30:09.594Z,0.30
2023-03-08T06:32:37.657Z,0.47
2023-03-08T06:35:05.043Z,0.43
2023-03-08T06:37:35.530Z,0.32
2023-03-08T06:40:03.998Z,0.22
2023-03-08T06:42:40.782Z,0.28
2023-03-08T06:45:09.564Z,0.63
2023-03-08T06:47:36.200Z,0.60
2023-03-08T06:50:03.035Z,0.22
2023-03-08T06:52:34.995Z,0.30
2023-03-08T06:55:01.701Z,0.40
2023-03-08T06:57:28.386Z,0.40
2023-03-08T06:59:55.103Z,0.50
2023-03-08T07:02:21.963Z,0.47
2023-03-08T07:04:52.836Z,0.20
2023-03-08T07:07:19.645Z,0.20
2023-03-08T07:09:46.411Z,0.38
2023-03-08T07:12:13.023Z,0.50
2023-03-08T07:14:39.719Z,0.50
2023-03-08T07:17:06.374Z,0.70
2023-03-08T07:19:34.138Z,0.60
2023-03-08T07:22:01.074Z,0.60
2023-03-08T07:24:27.802Z,0.50
2023-03-08T07:26:54.443Z,0.50
2023-03-08T07:29:21.134Z,0.57
2023-03-08T07:31:47.795Z,0.95
2023-03-08T07:34:14.508Z,0.65
2023-03-08T07:36:41.426Z,0.47
2023-03-08T07:39:08.114Z,0.50
2023-03-08T07:41:35.638Z,0.68
2023-03-08T07:44:02.624Z,0.63
2023-03-08T07:46:30.023Z,0.55
2023-03-08T07:48:56.749Z,0.55
2023-03-08T07:51:23.668Z,0.57
2023-03-08T07:53:51.699Z,1.23
2023-03-08T07:56:18.636Z,0.43
2023-03-08T07:58:46.159Z,0.60
2023-03-08T08:01:13.717Z,1.00
2023-03-08T08:03:40.562Z,0.50
2023-03-08T08:06:07.905Z,0.40
2023-03-08T08:08:34.752Z,0.60
2023-03-08T08:11:01.747Z,0.70
2023-03-08T08:13:28.494Z,0.73
2023-03-08T08:16:02.442Z,0.30
2023-03-08T08:18:29.374Z,0.63
2023-03-08T08:21:06.965Z,0.90
2023-03-08T08:23:34.519Z,0.80
2023-03-08T08:26:06.181Z,0.40
2023-03-08T08:28:33.364Z,0.32
2023-03-08T08:31:02.576Z,0.57
2023-03-08T08:33:29.721Z,0.55
2023-03-08T08:35:56.794Z,0.38
2023-03-08T08:38:26.420Z,2.63
2023-03-08T08:40:53.108Z,0.70
2023-03-08T08:43:19.783Z,0.80
2023-03-08T08:45:48.911Z,0.60
2023-03-08T08:48:15.728Z,0.52
2023-03-08T08:50:42.996Z,0.60
2023-03-08T08:53:10.409Z,0.75
2023-03-08T08:55:39.352Z,0.65
2023-03-08T08:58:07.892Z,0.30
2023-03-08T09:00:35.547Z,0.35
2023-03-08T09:03:04.061Z,1.20
2023-03-08T09:05:31.839Z,2.50
2023-03-08T09:08:00.105Z,0.40
2023-03-08T09:10:30.861Z,0.30
2023-03-08T09:12:59.239Z,0.30
2023-03-08T09:15:26.686Z,0.17
2023-03-08T09:17:53.849Z,0.43
2023-03-08T09:20:23.289Z,0.30
2023-03-08T09:22:51.295Z,0.65
2023-03-08T09:25:20.839Z,0.40
2023-03-08T09:27:48.935Z,0.30
2023-03-08T09:30:16.882Z,0.57
2023-03-08T09:32:43.628Z,0.50
2023-03-08T09:35:10.506Z,0.32
2023-03-08T09:37:38.145Z,0.30
2023-03-08T09:40:09.643Z,0.57
2023-03-08T09:42:38.281Z,0.63
2023-03-08T09:45:19.788Z,0.60
2023-03-08T09:47:48.376Z,0.68
2023-03-08T09:50:25.039Z,0.77
2023-03-08T09:53:14.612Z,0.20
2023-03-08T09:55:56.448Z,0.75
2023-03-08T09:58:32.571Z,0.60
2023-03-08T10:01:15.178Z,0.63
2023-03-08T10:06:42.263Z,0.35
2023-03-08T10:09:34.525Z,0.50
2023-03-08T10:12:13.007Z,0.40
2023-03-08T10:14:49.780Z,5.45
2023-03-08T10:17:23.236Z,1.23
2023-03-08T10:19:58.703Z,5.80
2023-03-08T10:22:29.249Z,3.92
2023-03-08T10:25:02.584Z,0.85
2023-03-08T10:27:34.267Z,1.30
2023-03-08T10:30:02.665Z,0.43
2023-03-08T10:32:29.676Z,1.40
2023-03-08T10:35:04.689Z,0.98
2023-03-08T10:37:33.226Z,1.17
2023-03-08T10:40:05.965Z,2.22
2023-03-08T10:42:34.905Z,1.80
2023-03-08T10:45:12.801Z,2.13
2023-03-08T10:47:39.492Z,2.63
2023-03-08T10:50:21.972Z,2.67
2023-03-08T10:52:53.508Z,3.22
2023-03-08T10:55:29.368Z,3.38
2023-03-08T10:58:01.248Z,3.42
2023-03-08T11:00:35.502Z,3.63
2023-03-08T11:03:23.720Z,3.55
2023-03-08T11:06:12.478Z,3.67
2023-03-08T11:08:51.226Z,2.92
2023-03-08T11:11:17.993Z,4.85
2023-03-08T11:13:47.164Z,3.67
2023-03-08T11:16:56.599Z,3.17
2023-03-08T11:19:35.786Z,4.18
2023-03-08T11:22:13.105Z,4.22
2023-03-08T11:24:49.517Z,2.70
2023-03-08T11:28:08.295Z,3.63
2023-03-08T11:31:00.810Z,2.47
2023-03-08T11:33:39.716Z,3.90
2023-03-08T11:36:15.476Z,3.90
2023-03-08T11:38:42.930Z,3.40
2023-03-08T11:41:15.292Z,4.35
2023-03-08T11:46:14.512Z,3.40
2023-03-08T11:49:11.353Z,3.42
2023-03-08T11:51:44.388Z,4.55
2023-03-08T11:54:41.893Z,3.30
2023-03-08T11:57:14.798Z,3.28
2023-03-08T12:00:11.680Z,3.38
2023-03-08T12:02:42.930Z,2.80
2023-03-08T12:05:09.755Z,2.67
2023-03-08T12:07:41.871Z,3.00
2023-03-08T12:10:29.764Z,3.08
2023-03-08T12:13:17.038Z,3.63
2023-03-08T12:16:07.221Z,3.03
2023-03-08T12:18:46.791Z,3.28
2023-03-08T12:21:30.370Z,3.75
2023-03-08T12:24:28.888Z,2.72
2023-03-08T12:27:04.357Z,3.30
2023-03-08T12:29:49.258Z,4.38
2023-03-08T12:32:17.593Z,3.78
2023-03-08T12:34:46.959Z,5.53
2023-03-08T12:37:22.728Z,4.43
2023-03-08T12:40:03.777Z,4.32
2023-03-08T12:42:40.910Z,4.28
2023-03-08T12:45:07.633Z,4.20
2023-03-08T12:47:34.360Z,5.47
2023-03-08T12:50:10.596Z,5.85
2023-03-08T12:52:37.630Z,5.22
2023-03-08T12:55:20.990Z,5.10
2023-03-08T12:57:54.318Z,4.53
2023-03-08T13:00:35.481Z,4.20
2023-03-08T13:03:14.583Z,3.78
2023-03-08T13:05:47.819Z,3.85
2023-03-08T13:08:14.448Z,3.33
2023-03-08T13:10:57.252Z,3.03
2023-03-08T13:13:39.359Z,3.80
2023-03-08T13:16:15.249Z,3.38
2023-03-08T13:18:45.881Z,3.10
2023-03-08T13:21:38.560Z,3.35
2023-03-08T13:27:07.668Z,2.65
2023-03-08T13:29:35.116Z,1.92
2023-03-08T13:32:11.878Z,1.80
2023-03-08T13:34:38.828Z,2.08
2023-03-08T13:37:05.472Z,2.45
2023-03-08T13:39:32.571Z,2.58
2023-03-08T13:42:12.138Z,2.33
2023-03-08T13:44:38.999Z,2.63
2023-03-08T13:47:19.701Z,3.28
2023-03-08T13:49:47.128Z,3.30
2023-03-08T13:52:24.419Z,2.72
2023-03-08T13:54:56.591Z,2.42
2023-03-08T13:57:29.104Z,1.98
2023-03-08T13:59:59.555Z,2.50
2023-03-08T14:02:31.797Z,3.00
2023-03-08T14:04:58.853Z,3.22
2023-03-08T14:07:32.263Z,2.58
2023-03-08T14:09:59.578Z,2.65
2023-03-08T14:12:30.784Z,2.88
2023-03-08T14:15:01.494Z,4.65
2023-03-08T14:17:30.605Z,3.92
2023-03-08T14:20:02.071Z,3.55
2023-03-08T14:22:40.418Z,3.28
2023-03-08T14:25:30.651Z,3.10
2023-03-08T14:27:58.368Z,2.88
2023-03-08T14:30:30.119Z,3.20
2023-03-08T14:32:59.643Z,3.92
2023-03-08T14:35:32.891Z,3.78
2023-03-08T14:38:00.478Z,3.38
2023-03-08T14:40:35.694Z,3.42
2023-03-08T14:43:15.493Z,3.58
2023-03-08T14:45:57.217Z,3.35
2023-03-08T14:48:32.539Z,3.03
2023-03-08T14:51:05.771Z,2.90
2023-03-08T14:53:38.961Z,2.78
2023-03-08T14:56:11.886Z,5.03
2023-03-08T14:58:41.295Z,14.52
2023-03-08T15:01:07.944Z,9.35
2023-03-08T15:03:34.859Z,5.40
2023-03-08T15:06:29.421Z,4.00
2023-03-08T15:08:57.455Z,4.03
2023-03-08T15:11:24.745Z,5.43
2023-03-08T15:13:51.510Z,3.33
2023-03-08T15:16:18.242Z,2.75
2023-03-08T15:18:44.991Z,3.08
2023-03-08T15:21:18.404Z,3.65
2023-03-08T15:23:49.218Z,2.92
2023-03-08T15:26:21.418Z,3.55
2023-03-08T15:28:48.132Z,4.97
2023-03-08T15:31:14.860Z,4.97
2023-03-08T15:33:41.493Z,5.70
2023-03-08T15:36:14.706Z,4.20
2023-03-08T15:38:41.666Z,5.32
2023-03-08T15:41:15.494Z,4.07
2023-03-08T15:43:42.651Z,4.65
2023-03-08T15:46:14.468Z,4.00
2023-03-08T15:48:41.630Z,4.40
2023-03-08T15:51:18.581Z,3.22
2023-03-08T15:53:45.694Z,3.78
2023-03-08T15:56:12.461Z,3.22
2023-03-08T15:58:39.245Z,3.92
2023-03-08T16:01:06.868Z,3.55
2023-03-08T16:03:35.031Z,5.50
2023-03-08T16:06:02.750Z,3.15
2023-03-08T16:08:29.808Z,4.00
2023-03-08T16:10:56.923Z,5.03
2023-03-08T16:13:23.579Z,5.10
2023-03-08T16:15:50.787Z,3.67
2023-03-08T16:18:17.523Z,3.70
2023-03-08T16:20:46.239Z,3.80
2023-03-08T16:23:13.304Z,4.00
2023-03-08T16:25:42.489Z,3.25
2023-03-08T16:28:10.360Z,4.13
2023-03-08T16:30:39.253Z,4.07
2023-03-08T16:33:05.959Z,4.88
2023-03-08T16:35:32.617Z,4.85
2023-03-08T16:37:59.310Z,3.95
2023-03-08T16:40:31.136Z,4.05
2023-03-08T16:42:58.079Z,4.18
2023-03-08T16:45:24.736Z,4.15
2023-03-08T16:47:51.414Z,5.45
2023-03-08T16:50:18.195Z,4.47
2023-03-08T16:52:44.779Z,4.43
2023-03-08T16:55:12.271Z,4.82
2023-03-08T16:57:40.241Z,4.18
2023-03-08T17:00:12.426Z,5.10
2023-03-08T17:02:39.445Z,4.65
2023-03-08T17:05:06.980Z,4.50
2023-03-08T17:07:34.056Z,4.70
2023-03-08T17:10:00.712Z,4.38
2023-03-08T17:12:27.475Z,5.47
2023-03-08T17:14:54.291Z,6.97
2023-03-08T17:17:20.916Z,4.65
2023-03-08T17:19:51.721Z,4.95
2023-03-08T17:22:18.755Z,4.78
2023-03-08T17:24:45.505Z,4.20
2023-03-08T17:27:12.127Z,4.25
2023-03-08T17:29:38.770Z,5.20
2023-03-08T17:32:05.803Z,6.10
2023-03-08T17:34:32.547Z,4.85
2023-03-08T17:37:01.234Z,4.72
2023-03-08T17:39:27.906Z,5.57
2023-03-08T17:41:54.516Z,5.13
2023-03-08T17:44:21.140Z,9.95
2023-03-08T17:46:48.004Z,4.65
2023-03-08T17:49:23.061Z,4.82
2023-03-08T17:51:51.298Z,6.28
2023-03-08T17:54:19.074Z,4.93
2023-03-08T17:56:46.894Z,4.35
2023-03-08T17:59:15.575Z,7.10
2023-03-08T18:01:42.760Z,4.35
2023-03-08T18:04:09.765Z,6.30
2023-03-08T18:06:42.001Z,6.85
2023-03-08T18:09:16.634Z,6.25
2023-03-08T18:11:43.945Z,4.10
2023-03-08T18:14:15.844Z,4.97
2023-03-08T18:16:44.852Z,5.10
2023-03-08T18:19:11.866Z,5.57
2023-03-08T18:21:41.068Z,2.83
2023-03-08T18:24:11.669Z,5.60
2023-03-08T18:26:38.613Z,4.35
2023-03-08T18:29:05.266Z,4.65
2023-03-08T18:31:35.094Z,4.57
2023-03-08T18:34:02.877Z,4.32
2023-03-08T18:36:29.774Z,5.47
2023-03-08T18:38:56.521Z,6.90
2023-03-08T18:41:27.633Z,6.22
2023-03-08T18:43:55.658Z,6.53
2023-03-08T18:46:28.718Z,7.68
2023-03-08T18:49:06.022Z,8.35
2023-03-08T18:51:34.860Z,8.43
2023-03-08T18:54:01.778Z,6.60
2023-03-08T18:56:29.378Z,6.22
2023-03-08T18:59:01.660Z,6.45
2023-03-08T19:01:30.490Z,6.68
2023-03-08T19:04:03.925Z,7.05
2023-03-08T19:06:30.654Z,8.23
2023-03-08T19:08:57.576Z,9.90
2023-03-08T19:11:26.503Z,7.45
2023-03-08T19:13:55.066Z,7.90
2023-03-08T19:16:23.033Z,8.77
2023-03-08T19:18:51.116Z,8.63
2023-03-08T19:21:22.575Z,9.05
2023-03-08T19:23:49.818Z,8.70
2023-03-08T19:26:37.763Z,7.15
2023-03-08T19:29:15.383Z,9.35
2023-03-08T19:31:52.394Z,8.73
2023-03-08T19:34:22.499Z,9.48
2023-03-08T19:36:49.903Z,10.82
2023-03-08T19:39:25.470Z,10.15
2023-03-08T19:41:55.781Z,9.40
2023-03-08T19:44:23.382Z,9.07
2023-03-08T19:46:50.804Z,12.52
2023-03-08T19:49:20.546Z,8.10
2023-03-08T19:51:48.673Z,8.85
2023-03-08T19:54:15.620Z,8.95
2023-03-08T19:56:42.316Z,8.25
2023-03-08T19:59:09.543Z,7.95
2023-03-08T20:01:37.009Z,9.63
2023-03-08T20:04:04.014Z,8.02
2023-03-08T20:06:33.813Z,8.45
2023-03-08T20:09:03.907Z,6.70
2023-03-08T20:11:30.760Z,5.85
2023-03-08T20:13:57.753Z,8.27
2023-03-08T20:16:25.745Z,7.82
2023-03-08T20:18:55.432Z,8.35
2023-03-08T20:21:24.755Z,7.03
2023-03-08T20:23:55.417Z,7.55
2023-03-08T20:26:24.131Z,7.75
2023-03-08T20:28:51.894Z,7.50
2023-03-08T20:31:19.425Z,5.88
2023-03-08T20:33:46.610Z,6.50
2023-03-08T20:36:13.297Z,5.90
2023-03-08T20:38:40.688Z,8.55
2023-03-08T20:41:12.031Z,7.40
2023-03-08T20:43:39.689Z,7.32
2023-03-08T20:46:09.396Z,6.35
2023-03-08T20:48:38.888Z,7.57
2023-03-08T20:51:07.012Z,7.85
2023-03-08T20:53:34.516Z,8.45
2023-03-08T20:56:08.942Z,7.65
2023-03-08T20:58:36.402Z,7.28
2023-03-08T21:01:32.767Z,7.38
2023-03-08T21:03:59.820Z,7.60
2023-03-08T21:06:30.305Z,6.28
2023-03-08T21:08:59.636Z,7.97
2023-03-08T21:11:26.543Z,7.90
2023-03-08T21:13:53.804Z,7.63
2023-03-08T21:16:23.562Z,6.55
2023-03-08T21:18:55.393Z,5.68
2023-03-08T21:21:27.098Z,5.43
2023-03-08T21:23:59.524Z,5.68
2023-03-08T21:28:56.029Z,5.57
2023-03-08T21:31:25.121Z,6.88
2023-03-08T21:33:53.505Z,7.75
2023-03-08T21:36:20.423Z,5.70
2023-03-08T21:38:53.407Z,6.15
2023-03-08T21:41:26.088Z,6.22
2023-03-08T21:43:53.011Z,5.20
2023-03-08T21:46:20.101Z,7.47
2023-03-08T21:48:47.692Z,6.93
2023-03-08T21:51:14.786Z,6.32
2023-03-08T21:53:42.465Z,6.13
2023-03-08T21:56:12.682Z,6.40
2023-03-08T21:58:39.487Z,6.25
2023-03-08T22:01:07.300Z,7.25
2023-03-08T22:03:36.014Z,6.28
2023-03-08T22:06:02.627Z,5.70
2023-03-08T22:08:29.284Z,4.30
2023-03-08T22:10:55.987Z,6.10
2023-03-08T22:13:22.684Z,7.05
2023-03-08T22:15:49.440Z,6.05
2023-03-08T22:18:16.092Z,6.75
2023-03-08T22:20:43.827Z,6.50
2023-03-08T22:23:10.575Z,6.32
2023-03-08T22:25:37.228Z,7.03
2023-03-08T22:28:06.454Z,5.88
2023-03-08T22:30:33.118Z,5.97
2023-03-08T22:32:59.826Z,5.30
2023-03-08T22:35:27.357Z,7.95
2023-03-08T22:37:54.021Z,6.45
2023-03-08T22:40:20.847Z,6.20
2023-03-08T22:42:48.976Z,5.55
2023-03-08T22:45:15.688Z,4.53
2023-03-08T22:47:42.468Z,4.50
2023-03-08T22:50:10.700Z,6.07
2023-03-08T22:52:38.062Z,6.30
2023-03-08T22:55:05.373Z,6.93
2023-03-08T22:57:32.176Z,7.13
2023-03-08T22:59:59.110Z,6.43
2023-03-08T23:02:26.567Z,6.82
2023-03-08T23:04:58.806Z,6.35
2023-03-08T23:07:25.622Z,6.53
2023-03-08T23:09:53.381Z,5.93
2023-03-08T23:12:20.099Z,5.90
2023-03-08T23:14:46.846Z,6.63
2023-03-08T23:17:13.616Z,5.50
2023-03-08T23:19:45.170Z,6.70
2023-03-08T23:22:12.819Z,5.90
2023-03-08T23:24:39.544Z,6.28
2023-03-08T23:27:06.344Z,6.72
2023-03-08T23:29:33.137Z,7.20
2023-03-08T23:31:59.886Z,6.70
2023-03-08T23:34:27.094Z,6.55
2023-03-08T23:36:53.970Z,6.97
2023-03-08T23:39:20.713Z,9.20
2023-03-08T23:41:47.429Z,7.38
2023-03-08T23:44:14.193Z,6.32
2023-03-08T23:46:40.931Z,7.72
2023-03-08T23:49:07.574Z,7.68
2023-03-08T23:51:34.230Z,7.82
2023-03-08T23:54:02.079Z,9.68
2023-03-08T23:56:37.997Z,8.10
2023-03-08T23:59:19.698Z,9.23
